Time;durP1;ratioP1;P1;durP2;ratioP2;P2;SDS_P1;SDS_P2;PMS_P1;PMS_P2;Temp;Humidity;BMP_temperature;BMP_pressure;BME280_temperature;BME280_humidity;BME280_pressure;Samples;Min_cycle;Max_cycle;Signal;HPM_P1;HPM_P2
2021/06/14 00:00:44;;;;;;;4.47;3.00;;;16.40;99.90;;;;;;4996951;28;20657;-66
2021/06/14 00:03:11;;;;;;;3.20;2.90;;;16.50;99.90;;;;;;4997055;28;20601;-66
2021/06/14 00:05:40;;;;;;;3.67;3.33;;;16.40;99.90;;;;;;4996751;28;20636;-66
2021/06/14 00:08:08;;;;;;;5.90;3.03;;;16.30;99.90;;;;;;4996888;28;20783;-66
2021/06/14 00:10:35;;;;;;;3.63;2.90;;;16.00;99.90;;;;;;4996928;28;20601;-67
2021/06/14 00:13:04;;;;;;;4.40;3.83;;;16.00;99.90;;;;;;4996919;28;20679;-66
2021/06/14 00:15:31;;;;;;;4.13;3.50;;;15.90;99.90;;;;;;4996681;28;20931;-67
2021/06/14 00:17:58;;;;;;;5.43;3.30;;;16.10;99.90;;;;;;4996649;28;20597;-66
2021/06/14 00:20:25;;;;;;;6.73;3.90;;;16.00;99.90;;;;;;4996638;28;21023;-64
2021/06/14 00:22:53;;;;;;;8.00;3.50;;;16.00;99.90;;;;;;4996671;28;20650;-65
2021/06/14 00:25:26;;;;;;;9.33;3.00;;;16.00;99.90;;;;;;4995764;28;20636;-65
2021/06/14 00:27:55;;;;;;;4.10;3.77;;;16.00;99.90;;;;;;4996414;28;20617;-65
2021/06/14 00:30:34;;;;;;;3.90;3.60;;;16.00;99.90;;;;;;4996567;28;20626;-65
2021/06/14 00:33:00;;;;;;;6.30;3.40;;;16.10;99.90;;;;;;4996491;28;21149;-65
2021/06/14 00:35:27;;;;;;;3.27;2.97;;;15.90;99.90;;;;;;4996827;28;20616;-65
2021/06/14 00:37:53;;;;;;;3.63;2.83;;;15.60;99.90;;;;;;4995073;28;20596;-65
2021/06/14 00:40:20;;;;;;;4.37;3.43;;;15.40;99.90;;;;;;4996293;28;20636;-65
2021/06/14 00:42:47;;;;;;;6.60;3.47;;;15.30;99.90;;;;;;4995818;28;20665;-65
2021/06/14 00:45:16;;;;;;;4.90;3.50;;;15.40;99.90;;;;;;4995967;28;20693;-66
2021/06/14 00:47:44;;;;;;;9.50;3.20;;;15.50;99.90;;;;;;4996409;28;20664;-66
2021/06/14 00:50:13;;;;;;;4.07;3.07;;;15.60;99.90;;;;;;4994766;28;20646;-66
2021/06/14 00:52:40;;;;;;;4.10;3.03;;;15.80;99.90;;;;;;4996086;28;21025;-66
2021/06/14 00:55:08;;;;;;;7.50;3.70;;;15.90;99.90;;;;;;4996036;28;21141;-66
2021/06/14 00:57:35;;;;;;;4.50;3.00;;;15.90;99.90;;;;;;4996163;28;20594;-66
2021/06/14 01:00:03;;;;;;;5.83;3.30;;;16.00;99.90;;;;;;4996156;28;21000;-66
2021/06/14 01:02:29;;;;;;;3.90;3.40;;;15.80;99.90;;;;;;4996286;28;20641;-66
2021/06/14 01:04:55;;;;;;;5.57;3.20;;;15.80;99.90;;;;;;4996040;28;20713;-66
2021/06/14 01:07:23;;;;;;;5.93;3.43;;;15.60;99.90;;;;;;4995774;28;20604;-67
2021/06/14 01:09:51;;;;;;;4.20;3.37;;;15.60;99.90;;;;;;4995638;28;20652;-66
2021/06/14 01:12:21;;;;;;;4.40;4.00;;;15.50;99.90;;;;;;4995253;28;20652;-66
2021/06/14 01:15:20;;;;;;;9.73;4.00;;;15.60;99.90;;;;;;4994187;28;20959;-67
2021/06/14 01:17:59;;;;;;;4.70;3.57;;;15.70;99.90;;;;;;4963489;28;20613;-67
2021/06/14 01:20:54;;;;;;;3.37;2.90;;;15.60;99.90;;;;;;4995392;28;20562;-67
2021/06/14 01:23:43;;;;;;;5.43;3.40;;;15.40;99.90;;;;;;4995549;28;21118;-67
2021/06/14 01:26:12;;;;;;;3.57;3.30;;;15.50;99.90;;;;;;4995667;28;20562;-67
2021/06/14 01:28:40;;;;;;;9.73;4.37;;;15.50;99.90;;;;;;4995349;28;20657;-67
2021/06/14 01:31:09;;;;;;;3.70;3.40;;;15.50;99.90;;;;;;4995479;28;20689;-67
2021/06/14 01:33:36;;;;;;;3.93;3.60;;;15.50;99.90;;;;;;4995345;28;20638;-67
2021/06/14 01:36:11;;;;;;;5.47;3.90;;;15.60;99.90;;;;;;4995362;28;20955;-67
2021/06/14 01:38:39;;;;;;;4.30;3.90;;;15.40;99.90;;;;;;4995199;28;21067;-67
2021/06/14 01:41:09;;;;;;;3.87;3.47;;;15.30;99.90;;;;;;4994266;28;21204;-67
2021/06/14 01:43:38;;;;;;;4.00;3.40;;;15.30;99.90;;;;;;4994916;28;20720;-67
2021/06/14 01:46:09;;;;;;;3.73;3.43;;;15.20;99.90;;;;;;4995105;28;20533;-67
2021/06/14 01:48:38;;;;;;;4.67;3.80;;;15.20;99.90;;;;;;4995061;28;20603;-67
2021/06/14 01:51:08;;;;;;;4.63;3.60;;;15.10;99.90;;;;;;4995121;28;20628;-67
2021/06/14 01:53:35;;;;;;;4.10;3.57;;;15.10;99.90;;;;;;4995084;28;21156;-67
2021/06/14 01:56:03;;;;;;;8.43;3.33;;;15.10;99.90;;;;;;4995022;28;20625;-66
2021/06/14 01:58:31;;;;;;;6.47;4.33;;;15.10;99.90;;;;;;4993315;28;20625;-67
2021/06/14 02:00:59;;;;;;;5.80;4.20;;;15.10;99.90;;;;;;4994647;28;20688;-66
2021/06/14 02:03:28;;;;;;;6.20;3.83;;;15.10;99.90;;;;;;4994793;28;21132;-66
2021/06/14 02:05:56;;;;;;;5.43;3.47;;;15.00;99.90;;;;;;4993294;28;20978;-67
2021/06/14 02:08:23;;;;;;;6.13;4.00;;;14.90;99.90;;;;;;4994638;28;21193;-67
2021/06/14 02:10:50;;;;;;;6.00;3.73;;;14.90;99.90;;;;;;4993245;28;20626;-67
2021/06/14 02:13:19;;;;;;;4.33;3.90;;;14.90;99.90;;;;;;4994546;28;20594;-67
2021/06/14 02:15:46;;;;;;;3.87;3.57;;;14.80;99.90;;;;;;4994496;28;20606;-68
2021/06/14 02:18:14;;;;;;;6.13;4.17;;;15.00;99.90;;;;;;4994512;28;20696;-65
2021/06/14 02:20:42;;;;;;;5.73;4.73;;;15.10;99.90;;;;;;4994499;28;20614;-66
2021/06/14 02:23:12;;;;;;;7.07;3.73;;;15.20;99.90;;;;;;4994254;28;20648;-66
2021/06/14 02:25:38;;;;;;;4.03;3.63;;;15.20;99.90;;;;;;4994338;28;21211;-66
2021/06/14 02:28:05;;;;;;;4.63;4.07;;;15.20;99.90;;;;;;4993210;28;20613;-66
2021/06/14 02:30:32;;;;;;;4.10;3.70;;;15.20;99.90;;;;;;4993171;28;20960;-66
2021/06/14 02:32:59;;;;;;;7.37;4.63;;;15.20;99.90;;;;;;4994431;28;20684;-66
2021/06/14 02:35:27;;;;;;;4.13;3.80;;;15.10;99.90;;;;;;4994286;28;20597;-66
2021/06/14 02:38:02;;;;;;;9.40;4.50;;;15.00;99.90;;;;;;4993043;28;20613;-66
2021/06/14 02:40:31;;;;;;;4.90;3.43;;;15.00;99.90;;;;;;4994138;28;21039;-66
2021/06/14 02:43:04;;;;;;;4.43;3.93;;;15.00;99.90;;;;;;4994077;28;20637;-66
2021/06/14 02:45:31;;;;;;;7.23;4.20;;;15.10;99.90;;;;;;4993856;28;20684;-66
2021/06/14 02:47:58;;;;;;;4.33;3.93;;;15.20;99.90;;;;;;4976328;28;20628;-66
2021/06/14 02:50:27;;;;;;;6.70;4.20;;;15.30;99.90;;;;;;4993898;28;20716;-67
2021/06/14 02:52:55;;;;;;;4.10;3.70;;;15.30;99.90;;;;;;4994138;28;20569;-66
2021/06/14 02:55:28;;;;;;;5.70;3.83;;;15.20;99.90;;;;;;4994095;28;20609;-66
2021/06/14 02:57:57;;;;;;;13.80;4.30;;;15.10;99.90;;;;;;4994193;28;21019;-66
2021/06/14 03:00:26;;;;;;;4.30;3.40;;;15.00;99.90;;;;;;4993974;28;20593;-66
2021/06/14 03:02:59;;;;;;;6.90;3.87;;;14.90;99.90;;;;;;4992280;28;20658;-66
2021/06/14 03:05:27;;;;;;;6.33;3.27;;;14.80;99.90;;;;;;4993591;28;20636;-66
2021/06/14 03:07:59;;;;;;;5.67;3.67;;;14.70;99.90;;;;;;4993130;28;20725;-66
2021/06/14 03:10:28;;;;;;;4.20;3.80;;;14.60;99.90;;;;;;4987726;28;20614;-66
2021/06/14 03:12:55;;;;;;;4.33;3.93;;;14.50;99.90;;;;;;4985986;28;20604;-66
2021/06/14 03:15:25;;;;;;;4.00;3.53;;;14.40;99.90;;;;;;4992909;28;20645;-66
2021/06/14 03:17:52;;;;;;;4.18;3.80;;;14.30;99.90;;;;;;4993896;28;20602;-66
2021/06/14 03:20:21;;;;;;;6.13;4.20;;;14.10;99.90;;;;;;4992945;28;20205;-66
2021/06/14 03:22:48;;;;;;;6.53;4.30;;;14.10;99.90;;;;;;4993761;28;20740;-66
2021/06/14 03:25:15;;;;;;;6.20;3.90;;;14.10;99.90;;;;;;4993875;28;20201;-66
2021/06/14 03:27:43;;;;;;;5.83;4.67;;;14.20;99.90;;;;;;4993734;28;21149;-66
2021/06/14 03:30:12;;;;;;;6.13;4.10;;;14.10;99.90;;;;;;4993729;28;20601;-66
2021/06/14 03:32:41;;;;;;;6.27;4.27;;;14.20;99.90;;;;;;4993630;28;20625;-66
2021/06/14 03:35:11;;;;;;;5.00;4.17;;;14.10;99.90;;;;;;4993698;28;20602;-66
2021/06/14 03:37:38;;;;;;;6.47;3.73;;;14.20;99.90;;;;;;4993855;28;20600;-66
2021/06/14 03:40:05;;;;;;;4.63;4.10;;;14.20;99.90;;;;;;4993604;28;21028;-66
2021/06/14 03:42:31;;;;;;;5.20;4.20;;;14.30;99.90;;;;;;4993519;28;20990;-66
2021/06/14 03:44:58;;;;;;;4.40;3.83;;;14.30;99.90;;;;;;4993381;28;20652;-66
2021/06/14 03:47:25;;;;;;;5.90;3.80;;;14.30;99.90;;;;;;4993477;28;20598;-66
2021/06/14 03:49:52;;;;;;;8.43;3.50;;;14.30;99.90;;;;;;4993475;28;20633;-66
2021/06/14 03:52:18;;;;;;;6.10;4.03;;;14.30;99.90;;;;;;4992556;28;20625;-66
2021/06/14 03:54:44;;;;;;;6.03;4.07;;;14.40;99.90;;;;;;4993339;28;20590;-67
2021/06/14 03:57:11;;;;;;;8.10;4.53;;;14.60;99.90;;;;;;4993343;28;20685;-67
2021/06/14 03:59:37;;;;;;;6.50;4.03;;;14.60;99.90;;;;;;4992960;28;20629;-67
2021/06/14 04:02:04;;;;;;;7.80;4.47;;;14.60;99.90;;;;;;4993403;28;20641;-67
2021/06/14 04:07:03;;;;;;;6.57;3.80;;;14.60;99.90;;;;;;4996928;28;20562;-67
2021/06/14 04:09:29;;;;;;;7.10;4.53;;;14.60;99.90;;;;;;4997014;28;20622;-67
2021/06/14 04:11:56;;;;;;;4.40;4.00;;;14.60;99.90;;;;;;4996916;28;20626;-67
2021/06/14 04:14:22;;;;;;;5.90;4.40;;;14.60;99.90;;;;;;4996565;28;20612;-67
2021/06/14 04:16:48;;;;;;;7.13;4.30;;;14.70;99.90;;;;;;4996809;28;20602;-67
2021/06/14 04:19:15;;;;;;;6.93;4.30;;;14.80;99.90;;;;;;4996591;28;20602;-67
2021/06/14 04:21:41;;;;;;;6.27;4.70;;;14.80;89.20;;;;;;4995964;28;20648;-67
2021/06/14 04:24:08;;;;;;;10.67;4.30;;;14.90;94.60;;;;;;4996639;28;21017;-67
2021/06/14 04:26:34;;;;;;;7.10;4.33;;;15.00;99.90;;;;;;4996543;28;20602;-67
2021/06/14 04:29:01;;;;;;;4.70;4.30;;;15.00;99.90;;;;;;4996407;28;21184;-67
2021/06/14 04:31:27;;;;;;;10.63;5.30;;;15.10;89.10;;;;;;4996391;28;20616;-67
2021/06/14 04:33:54;;;;;;;5.20;4.70;;;15.10;96.70;;;;;;4994807;28;21243;-67
2021/06/14 04:36:20;;;;;;;6.90;4.47;;;15.00;65.30;;;;;;4994725;28;20644;-67
2021/06/14 04:38:47;;;;;;;5.43;4.33;;;15.10;49.40;;;;;;4996304;28;20609;-67
2021/06/14 04:41:13;;;;;;;3.90;3.60;;;15.10;56.10;;;;;;4996125;28;20977;-66
2021/06/14 04:43:40;;;;;;;15.73;5.10;;;15.10;65.80;;;;;;4996127;28;20679;-66
2021/06/14 04:46:06;;;;;;;6.17;4.40;;;15.20;34.70;;;;;;4996245;28;20566;-66
2021/06/14 04:48:32;;;;;;;8.20;4.60;;;15.20;49.40;;;;;;4996140;28;20690;-66
2021/06/14 04:50:59;;;;;;;7.53;4.53;;;15.30;19.80;;;;;;4995843;28;20600;-66
2021/06/14 04:53:25;;;;;;;4.53;3.80;;;15.40;50.60;;;;;;4996009;28;20616;-66
2021/06/14 04:55:53;;;;;;;5.60;4.27;;;15.50;57.70;;;;;;4995590;28;20724;-66
2021/06/14 04:58:20;;;;;;;7.87;4.20;;;15.70;42.10;;;;;;4996172;28;20693;-66
2021/06/14 05:00:46;;;;;;;5.43;4.17;;;15.50;39.70;;;;;;4995628;28;20637;-66
2021/06/14 05:03:13;;;;;;;5.47;4.40;;;15.30;65.30;;;;;;4995770;28;20980;-66
2021/06/14 05:05:39;;;;;;;9.07;4.73;;;15.40;57.80;;;;;;4994287;28;20648;-66
2021/06/14 05:08:06;;;;;;;4.87;4.40;;;15.60;68.20;;;;;;4994213;28;20632;-66
2021/06/14 05:10:33;;;;;;;5.40;4.50;;;15.90;51.70;;;;;;4995713;28;20955;-66
2021/06/14 05:12:59;;;;;;;12.00;4.53;;;15.80;29.00;;;;;;4995706;28;20602;-66
2021/06/14 05:15:26;;;;;;;7.43;3.90;;;15.90;23.20;;;;;;4995719;28;20596;-66
2021/06/14 05:17:52;;;;;;;5.43;4.43;;;16.10;52.50;;;;;;4995263;28;21399;-66
2021/06/14 05:20:18;;;;;;;6.03;4.60;;;16.30;7.20;;;;;;4995562;28;20601;-66
2021/06/14 05:22:45;;;;;;;5.43;4.90;;;16.40;45.70;;;;;;4995285;28;20638;-66
2021/06/14 05:25:13;;;;;;;4.87;3.90;;;16.40;30.60;;;;;;4995327;28;20597;-66
2021/06/14 05:27:39;;;;;;;4.20;3.83;;;16.40;1.00;;;;;;4995243;28;20640;-66
2021/06/14 05:30:07;;;;;;;6.77;3.97;;;16.40;18.50;;;;;;4995236;28;21152;-66
2021/06/14 05:32:33;;;;;;;8.60;4.00;;;16.30;9.30;;;;;;4995237;28;20657;-66
2021/06/14 05:34:59;;;;;;;8.20;4.83;;;16.50;27.50;;;;;;4995368;28;20618;-66
2021/06/14 05:37:26;;;;;;;4.70;4.33;;;16.60;33.30;;;;;;4994900;28;20972;-66
2021/06/14 05:39:55;;;;;;;5.17;4.07;;;16.60;17.80;;;;;;4994992;28;20958;-66
2021/06/14 05:42:26;;;;;;;7.00;4.57;;;16.70;28.40;;;;;;4994932;28;20665;-66
2021/06/14 05:44:53;;;;;;;9.23;4.77;;;16.70;35.40;;;;;;4994858;28;20636;-66
2021/06/14 05:47:19;;;;;;;6.97;4.10;;;16.70;3.40;;;;;;4994659;28;20657;-66
2021/06/14 05:49:46;;;;;;;8.03;7.20;;;17.00;18.60;;;;;;4994214;28;20609;-66
2021/06/14 05:52:12;;;;;;;5.37;3.40;;;17.10;8.20;;;;;;4994517;28;20636;-65
2021/06/14 05:54:38;;;;;;;6.00;4.00;;;17.30;12.30;;;;;;5004370;28;20618;-79
2021/06/14 05:57:09;;;;;;;7.47;3.53;;;17.50;19.50;;;;;;5007330;28;21162;-81
2021/06/14 05:59:39;;;;;;;6.37;4.13;;;17.30;46.90;;;;;;4985422;28;20712;-78
2021/06/14 06:02:06;;;;;;;9.50;3.90;;;17.20;3.30;;;;;;5000083;28;20732;-78
2021/06/14 06:04:33;;;;;;;8.10;3.60;;;17.40;11.90;;;;;;4983320;28;20696;-79
2021/06/14 06:07:01;;;;;;;4.43;4.03;;;17.40;16.00;;;;;;4999026;28;20597;-78
2021/06/14 06:09:28;;;;;;;4.40;3.93;;;17.50;15.80;;;;;;4999889;28;20693;-79
2021/06/14 06:11:54;;;;;;;6.30;3.90;;;17.60;25.50;;;;;;4993989;28;20709;-66
2021/06/14 06:14:22;;;;;;;4.40;3.50;;;17.60;23.70;;;;;;4995240;28;20593;-66
2021/06/14 06:16:48;;;;;;;5.13;4.17;;;17.70;68.90;;;;;;4994655;28;20642;-65
2021/06/14 06:19:15;;;;;;;5.97;4.13;;;17.60;61.70;;;;;;4994655;28;20641;-66
2021/06/14 06:21:41;;;;;;;4.90;3.53;;;17.60;51.10;;;;;;4994516;28;20600;-66
2021/06/14 06:24:08;;;;;;;3.97;3.53;;;17.80;53.60;;;;;;4994457;28;20629;-66
2021/06/14 06:26:34;;;;;;;4.80;3.90;;;17.80;48.00;;;;;;4993922;28;20596;-66
2021/06/14 06:29:02;;;;;;;5.23;3.30;;;18.00;40.30;;;;;;4994299;28;20610;-66
2021/06/14 06:31:30;;;;;;;4.20;3.80;;;18.20;99.90;;;;;;4994358;28;20608;-66
2021/06/14 06:33:57;;;;;;;6.00;4.03;;;18.00;83.70;;;;;;4994967;28;20987;-66
2021/06/14 06:36:24;;;;;;;10.53;4.73;;;18.00;49.20;;;;;;4994437;28;20713;-66
2021/06/14 06:38:50;;;;;;;8.57;4.10;;;17.90;72.80;;;;;;4993948;28;20616;-66
2021/06/14 06:41:17;;;;;;;4.17;3.77;;;18.20;94.40;;;;;;4993914;28;20649;-66
2021/06/14 06:43:43;;;;;;;6.03;4.07;;;18.30;99.90;;;;;;4993887;28;21223;-66
2021/06/14 06:46:11;;;;;;;13.03;4.50;;;18.40;99.90;;;;;;4994043;28;20694;-66
2021/06/14 06:48:38;;;;;;;8.70;3.67;;;18.30;99.90;;;;;;4992052;28;20724;-66
2021/06/14 06:51:05;;;;;;;6.80;3.97;;;18.40;99.90;;;;;;4991159;28;20649;-66
2021/06/14 06:53:31;;;;;;;4.80;4.03;;;18.70;99.90;;;;;;4993585;28;20600;-66
2021/06/14 06:55:59;;;;;;;8.13;3.90;;;18.90;99.50;;;;;;4992425;28;20621;-66
2021/06/14 06:58:26;;;;;;;5.97;3.77;;;18.80;99.90;;;;;;4993529;28;20721;-66
2021/06/14 07:00:52;;;;;;;4.57;4.07;;;19.10;99.90;;;;;;4993936;28;20718;-66
2021/06/14 07:03:19;;;;;;;3.27;2.97;;;19.20;99.90;;;;;;4993059;28;21020;-66
2021/06/14 07:05:48;;;;;;;4.80;4.30;;;19.30;99.90;;;;;;4993907;28;20632;-65
2021/06/14 07:08:15;;;;;;;7.10;3.70;;;19.40;99.90;;;;;;4993547;28;20633;-65
2021/06/14 07:10:43;;;;;;;4.13;3.60;;;19.50;99.90;;;;;;4994010;28;20741;-65
2021/06/14 07:13:10;;;;;;;6.60;3.87;;;19.40;99.90;;;;;;4992829;28;20625;-65
2021/06/14 07:15:37;;;;;;;4.47;3.87;;;19.70;99.90;;;;;;4993409;28;20660;-65
2021/06/14 07:18:03;;;;;;;6.63;3.50;;;19.70;99.90;;;;;;4994044;28;20673;-65
2021/06/14 07:20:30;;;;;;;3.90;3.47;;;19.60;99.90;;;;;;4994053;28;20608;-65
2021/06/14 07:22:57;;;;;;;4.50;3.20;;;19.70;99.90;;;;;;4993764;28;20752;-65
2021/06/14 07:25:24;;;;;;;3.77;3.33;;;19.70;99.90;;;;;;4993665;28;20594;-64
2021/06/14 07:27:50;;;;;;;4.23;3.83;;;19.80;99.90;;;;;;4994023;28;20598;-64
2021/06/14 07:30:19;;;;;;;3.73;3.40;;;19.80;99.90;;;;;;4993818;28;20616;-64
2021/06/14 07:32:45;;;;;;;4.30;3.13;;;20.00;99.90;;;;;;4992556;28;20634;-65
2021/06/14 07:35:12;;;;;;;4.10;3.70;;;20.10;99.90;;;;;;4993779;28;21032;-65
2021/06/14 07:37:38;;;;;;;5.67;3.70;;;20.30;99.90;;;;;;4993936;28;20636;-65
2021/06/14 07:40:07;;;;;;;13.07;3.77;;;20.50;99.90;;;;;;4997299;28;20613;-66
2021/06/14 07:42:33;;;;;;;4.73;3.30;;;20.50;99.90;;;;;;4997571;28;20996;-65
2021/06/14 07:45:00;;;;;;;4.80;3.90;;;20.60;99.90;;;;;;4997331;28;20680;-65
2021/06/14 07:47:26;;;;;;;4.97;3.40;;;20.40;99.90;;;;;;4997565;28;20602;-65
2021/06/14 07:49:52;;;;;;;10.17;3.67;;;20.60;99.90;;;;;;4996061;28;20593;-65
2021/06/14 07:52:19;;;;;;;6.30;3.73;;;20.70;99.90;;;;;;4996952;28;20609;-66
2021/06/14 07:54:45;;;;;;;4.63;3.60;;;20.80;99.90;;;;;;4996017;28;21171;-65
2021/06/14 07:57:12;;;;;;;4.63;3.43;;;21.10;99.90;;;;;;4997125;28;20605;-65
2021/06/14 07:59:38;;;;;;;7.03;3.60;;;21.20;99.90;;;;;;4995926;28;20617;-65
2021/06/14 08:02:04;;;;;;;6.23;3.13;;;21.20;99.90;;;;;;4997125;28;20598;-65
2021/06/14 08:04:31;;;;;;;6.83;3.20;;;21.20;99.90;;;;;;4997092;28;20609;-65
2021/06/14 08:06:57;;;;;;;3.87;3.03;;;21.40;99.90;;;;;;4996937;28;20624;-66
2021/06/14 08:09:29;;;;;;;3.13;2.70;;;21.30;99.90;;;;;;4996795;28;20605;-66
2021/06/14 08:11:57;;;;;;;3.83;3.27;;;21.30;99.90;;;;;;4997098;28;20720;-67
2021/06/14 08:14:24;;;;;;;7.87;3.50;;;21.50;99.90;;;;;;4997047;28;20625;-67
2021/06/14 08:16:50;;;;;;;4.33;2.93;;;21.90;99.90;;;;;;4995624;28;20589;-66
2021/06/14 08:27:01;;;;;;;8.03;3.20;;;22.00;99.90;;;;;;4996466;28;20932;-66
2021/06/14 08:29:27;;;;;;;5.63;3.60;;;22.10;99.90;;;;;;4996547;28;20601;-66
2021/06/14 08:31:53;;;;;;;4.20;3.00;;;22.10;99.90;;;;;;4996015;28;20629;-66
2021/06/14 08:34:20;;;;;;;3.43;3.13;;;21.90;99.90;;;;;;4995745;28;20618;-66
2021/06/14 08:36:46;;;;;;;4.40;3.17;;;22.00;99.90;;;;;;4994274;28;21160;-66
2021/06/14 08:39:13;;;;;;;4.80;3.47;;;22.30;99.90;;;;;;4995615;28;20613;-65
2021/06/14 08:41:42;;;;;;;4.70;3.30;;;22.50;99.90;;;;;;4995734;28;20653;-65
2021/06/14 08:44:09;;;;;;;4.10;3.70;;;22.80;99.90;;;;;;4995619;28;21195;-66
2021/06/14 08:46:36;;;;;;;3.93;2.97;;;22.60;99.90;;;;;;4995882;28;20637;-65
2021/06/14 08:49:05;;;;;;;3.10;2.90;;;22.80;99.90;;;;;;4995699;28;20719;-66
2021/06/14 08:51:31;;;;;;;6.90;3.17;;;22.70;99.90;;;;;;4996106;28;20610;-66
2021/06/14 08:53:57;;;;;;;3.30;3.00;;;23.10;99.90;;;;;;4995371;28;20629;-65
2021/06/14 08:56:26;;;;;;;2.93;2.63;;;23.10;99.90;;;;;;4995606;28;20617;-66
2021/06/14 08:58:54;;;;;;;4.30;3.27;;;23.10;99.90;;;;;;4995422;28;21300;-66
2021/06/14 09:01:21;;;;;;;5.00;2.90;;;22.70;99.90;;;;;;4982133;28;20632;-67
2021/06/14 09:03:48;;;;;;;3.33;2.63;;;22.70;99.90;;;;;;4995599;28;20665;-67
2021/06/14 09:06:14;;;;;;;6.20;2.60;;;23.00;99.90;;;;;;4995742;28;20640;-66
2021/06/14 09:09:01;;;;;;;5.00;3.33;;;23.10;99.90;;;;;;4995635;28;20625;-67
2021/06/14 09:11:29;;;;;;;4.67;2.83;;;23.30;99.90;;;;;;4995580;28;20586;-67
2021/06/14 09:13:55;;;;;;;3.10;2.90;;;22.80;99.90;;;;;;4995595;28;20645;-65
2021/06/14 09:16:22;;;;;;;5.93;2.50;;;23.10;99.90;;;;;;5010020;28;20621;-65
2021/06/14 09:18:50;;;;;;;5.40;2.80;;;23.40;99.90;;;;;;4995421;28;20634;-65
2021/06/14 09:21:18;;;;;;;4.47;2.70;;;23.70;99.90;;;;;;4994999;28;20624;-65
2021/06/14 09:23:56;;;;;;;4.70;3.30;;;23.90;99.90;;;;;;4994978;28;20657;-65
2021/06/14 09:26:36;;;;;;;7.20;3.00;;;23.90;99.90;;;;;;4995105;28;20629;-66
2021/06/14 09:29:05;;;;;;;4.60;2.80;;;24.00;99.90;;;;;;4995624;28;20621;-66
2021/06/14 09:31:43;;;;;;;5.43;2.97;;;23.60;99.90;;;;;;5009824;28;20614;-66
2021/06/14 09:34:10;;;;;;;2.97;2.77;;;23.80;99.90;;;;;;4995348;28;21159;-65
2021/06/14 09:36:37;;;;;;;6.63;3.20;;;23.80;99.90;;;;;;4994827;28;20614;-66
2021/06/14 09:39:15;;;;;;;6.70;3.30;;;24.10;99.90;;;;;;4995134;28;21220;-65
2021/06/14 09:41:51;;;;;;;3.80;3.07;;;24.10;99.90;;;;;;4995401;28;20726;-65
2021/06/14 09:44:28;;;;;;;5.33;2.70;;;23.80;99.90;;;;;;4994755;28;20669;-66
2021/06/14 09:47:06;;;;;;;4.23;3.73;;;24.10;99.90;;;;;;4995400;28;21163;-65
2021/06/14 09:49:34;;;;;;;5.30;2.97;;;24.20;99.90;;;;;;4995511;28;21116;-66
2021/06/14 09:52:00;;;;;;;2.90;2.70;;;23.50;99.90;;;;;;4985538;28;20623;-66
2021/06/14 09:54:29;;;;;;;5.57;3.90;;;24.00;99.90;;;;;;4975654;28;20630;-66
2021/06/14 09:56:57;;;;;;;4.40;3.03;;;24.20;99.90;;;;;;4975467;28;20594;-66
2021/06/14 09:59:29;;;;;;;3.10;2.90;;;24.60;99.90;;;;;;4975416;28;20637;-66
2021/06/14 10:02:17;;;;;;;3.97;2.83;;;24.90;99.90;;;;;;4974775;28;20633;-67
2021/06/14 10:04:48;;;;;;;5.47;3.53;;;24.90;99.90;;;;;;4973991;28;20658;-66
2021/06/14 10:07:17;;;;;;;4.87;3.60;;;24.90;99.90;;;;;;4975971;28;20625;-66
2021/06/14 10:09:48;;;;;;;4.60;3.10;;;24.70;99.90;;;;;;4975741;28;20623;-66
2021/06/14 10:12:22;;;;;;;5.47;3.00;;;25.30;99.90;;;;;;4975573;28;20982;-66
2021/06/14 10:14:59;;;;;;;3.43;3.10;;;25.20;99.90;;;;;;4975359;28;20622;-66
2021/06/14 10:17:37;;;;;;;5.33;3.23;;;25.30;99.90;;;;;;4975517;28;20594;-66
2021/06/14 10:20:22;;;;;;;4.63;3.30;;;25.60;99.90;;;;;;4973921;28;20661;-66
2021/06/14 10:22:50;;;;;;;4.40;3.20;;;24.90;99.90;;;;;;4975407;28;20605;-65
2021/06/14 10:25:18;;;;;;;4.37;3.20;;;25.30;99.90;;;;;;4974376;28;21146;-66
2021/06/14 10:27:45;;;;;;;3.63;2.73;;;25.60;99.90;;;;;;4975611;28;20623;-67
2021/06/14 10:30:16;;;;;;;5.27;3.00;;;25.40;99.90;;;;;;4975275;28;20985;-66
2021/06/14 10:32:44;;;;;;;3.93;2.93;;;25.00;99.90;;;;;;4975347;28;20611;-66
2021/06/14 10:35:12;;;;;;;5.60;2.47;;;25.40;99.90;;;;;;4973885;28;20626;-66
2021/06/14 10:37:45;;;;;;;5.17;3.10;;;25.50;99.90;;;;;;4975022;28;20606;-66
2021/06/14 10:40:15;;;;;;;4.20;3.00;;;25.50;99.90;;;;;;4975134;28;21044;-66
2021/06/14 10:42:45;;;;;;;13.53;2.77;;;25.80;99.90;;;;;;4974770;28;20666;-66
2021/06/14 10:45:18;;;;;;;7.40;2.53;;;26.00;99.90;;;;;;4975347;28;20658;-67
2021/06/14 10:47:46;;;;;;;7.10;3.10;;;25.50;99.90;;;;;;4974476;28;20622;-67
2021/06/14 10:50:15;;;;;;;4.70;2.80;;;25.50;99.90;;;;;;4974943;28;21158;-65
2021/06/14 10:52:43;;;;;;;3.23;2.93;;;26.00;99.90;;;;;;4974867;28;20657;-65
2021/06/14 10:55:12;;;;;;;6.67;3.43;;;26.10;99.90;;;;;;4974934;28;20610;-66
2021/06/14 10:57:41;;;;;;;3.67;2.80;;;26.20;99.90;;;;;;4989146;28;20637;-66
2021/06/14 11:00:29;;;;;;;4.90;3.20;;;25.70;99.90;;;;;;4989176;28;20642;-66
2021/06/14 11:02:57;;;;;;;3.27;2.47;;;26.40;99.90;;;;;;4980175;28;20618;-66
2021/06/14 11:05:40;;;;;;;3.73;3.30;;;26.80;99.90;;;;;;4993622;28;20620;-65
2021/06/14 11:08:24;;;;;;;3.53;2.90;;;26.80;99.90;;;;;;4993990;28;20601;-66
2021/06/14 11:11:03;;;;;;;3.30;2.97;;;26.40;99.90;;;;;;4992931;28;21136;-65
2021/06/14 11:13:30;;;;;;;3.90;2.53;;;26.80;99.90;;;;;;4997286;28;20622;-65
2021/06/14 11:16:00;;;;;;;5.50;3.20;;;26.90;99.90;;;;;;4995865;28;20610;-66
2021/06/14 11:18:27;;;;;;;3.30;2.43;;;27.00;99.90;;;;;;4984856;28;20625;-64
2021/06/14 11:21:16;;;;;;;2.93;2.60;;;27.10;99.90;;;;;;4997772;28;21135;-65
2021/06/14 11:23:44;;;;;;;3.97;2.70;;;27.10;99.90;;;;;;4997794;28;20676;-65
2021/06/14 11:26:12;;;;;;;4.50;2.70;;;27.00;99.90;;;;;;4997771;28;20704;-66
2021/06/14 11:28:43;;;;;;;3.70;3.13;;;27.90;99.90;;;;;;4997959;28;20640;-66
2021/06/14 11:31:17;;;;;;;3.10;2.80;;;28.30;99.90;;;;;;4998030;28;20946;-66
2021/06/14 11:33:45;;;;;;;6.63;3.13;;;28.80;99.90;;;;;;4997458;28;20647;-66
2021/06/14 11:36:14;;;;;;;7.37;2.50;;;28.50;99.90;;;;;;4997606;28;20613;-64
2021/06/14 11:38:40;;;;;;;4.20;2.40;;;28.20;99.90;;;;;;4996381;28;20627;-66
2021/06/14 11:41:07;;;;;;;3.43;3.13;;;28.50;99.90;;;;;;4997380;28;20720;-66
2021/06/14 11:43:33;;;;;;;5.20;3.20;;;29.20;99.90;;;;;;4997285;28;20637;-66
2021/06/14 11:46:00;;;;;;;3.70;2.53;;;29.30;99.90;;;;;;4997492;28;20601;-65
2021/06/14 11:48:31;;;;;;;6.93;2.70;;;29.40;99.90;;;;;;4997105;28;20640;-65
2021/06/14 11:51:04;;;;;;;3.63;2.67;;;29.90;99.90;;;;;;4997177;28;20994;-65
2021/06/14 11:53:56;;;;;;;4.43;2.83;;;30.10;99.90;;;;;;4997234;28;20601;-65
2021/06/14 11:56:24;;;;;;;3.00;2.80;;;30.30;99.90;;;;;;4997203;28;20633;-65
2021/06/14 11:58:53;;;;;;;3.80;2.53;;;30.00;99.90;;;;;;4996613;28;20740;-65
2021/06/14 12:01:31;;;;;;;4.53;2.97;;;30.10;99.90;;;;;;4997099;28;20601;-65
2021/06/14 12:03:59;;;;;;;6.67;3.70;;;30.10;99.90;;;;;;4997023;28;21041;-65
2021/06/14 12:06:26;;;;;;;3.57;3.17;;;29.80;99.90;;;;;;4996856;28;20952;-65
2021/06/14 12:09:05;;;;;;;3.10;2.33;;;30.20;99.90;;;;;;4995330;28;20630;-65
2021/06/14 12:11:31;;;;;;;3.77;2.17;;;30.00;99.90;;;;;;4996852;28;20636;-65
2021/06/14 12:14:13;;;;;;;4.27;2.90;;;30.70;99.90;;;;;;4996965;28;20605;-65
2021/06/14 12:16:40;;;;;;;6.33;2.87;;;30.50;99.90;;;;;;4996799;28;20562;-65
2021/06/14 12:19:06;;;;;;;5.40;2.90;;;31.00;99.90;;;;;;4996961;28;20659;-66
2021/06/14 12:21:33;;;;;;;4.60;2.40;;;31.10;99.90;;;;;;4996507;28;20599;-67
2021/06/14 12:24:00;;;;;;;5.93;2.97;;;30.60;99.90;;;;;;4995936;28;20641;-64
2021/06/14 12:26:38;;;;;;;3.97;2.97;;;30.80;99.90;;;;;;4996448;28;20622;-66
2021/06/14 12:29:05;;;;;;;7.20;3.10;;;30.90;99.90;;;;;;4996534;28;20667;-66
2021/06/14 12:31:31;;;;;;;5.30;2.90;;;31.10;99.90;;;;;;4996732;28;20613;-66
2021/06/14 12:33:58;;;;;;;8.27;3.47;;;30.90;99.90;;;;;;4996648;28;20622;-66
2021/06/14 12:36:25;;;;;;;3.83;2.80;;;30.30;99.90;;;;;;4996536;28;21179;-66
2021/06/14 12:38:53;;;;;;;2.80;2.60;;;31.00;99.90;;;;;;4996362;28;20602;-66
2021/06/14 12:41:20;;;;;;;3.00;2.67;;;31.40;99.90;;;;;;4996193;28;20621;-64
2021/06/14 12:43:47;;;;;;;4.40;2.97;;;31.60;99.90;;;;;;4995612;28;20660;-64
2021/06/14 12:46:14;;;;;;;3.97;2.30;;;31.50;99.90;;;;;;4996409;28;20617;-65
2021/06/14 12:48:44;;;;;;;7.67;2.77;;;31.50;99.90;;;;;;4996044;28;21162;-65
2021/06/14 12:51:11;;;;;;;4.67;2.87;;;31.90;99.90;;;;;;4995993;28;21132;-65
2021/06/14 12:53:37;;;;;;;3.57;2.73;;;31.60;99.90;;;;;;4996138;28;20598;-65
2021/06/14 12:56:04;;;;;;;2.87;2.67;;;31.90;99.90;;;;;;4995953;28;20688;-65
2021/06/14 12:58:36;;;;;;;3.70;2.90;;;31.90;99.90;;;;;;4995925;28;20608;-65
2021/06/14 13:01:08;;;;;;;2.80;2.60;;;31.40;99.90;;;;;;4995927;28;20613;-65
2021/06/14 13:03:37;;;;;;;2.97;2.43;;;31.50;99.90;;;;;;4996038;28;20654;-65